createdAt,value
2018-03-27T00:00:35.202Z,7.16
2018-03-27T00:01:35.021Z,7.12
2018-03-27T00:02:34.998Z,7.15
2018-03-27T00:03:34.884Z,7.08
2018-03-27T00:04:34.803Z,7.11
2018-03-27T00:05:34.686Z,7.15
2018-03-27T00:06:34.719Z,7.07
2018-03-27T00:07:34.528Z,7.12
2018-03-27T00:08:34.561Z,7.12
2018-03-27T00:09:34.362Z,7.15
2018-03-27T00:10:34.336Z,7.07
2018-03-27T00:11:34.203Z,7.04
2018-03-27T00:12:34.248Z,7.09
2018-03-27T00:13:34.034Z,6.99
2018-03-27T00:14:34.087Z,7.01
2018-03-27T00:15:33.879Z,6.94
2018-03-27T00:16:33.861Z,6.93
2018-03-27T00:17:33.710Z,6.90
2018-03-27T00:18:33.700Z,6.94
2018-03-27T00:19:33.565Z,7.00
2018-03-27T00:20:33.583Z,6.96
2018-03-27T00:21:33.418Z,7.01
2018-03-27T00:22:33.388Z,6.93
2018-03-27T00:23:33.230Z,6.99
2018-03-27T00:24:33.217Z,6.87
2018-03-27T00:25:33.100Z,6.79
2018-03-27T00:26:33.119Z,6.82
2018-03-27T00:27:32.910Z,6.69
2018-03-27T00:28:32.927Z,6.68
2018-03-27T00:29:32.758Z,6.72
2018-03-27T00:30:32.728Z,6.64
2018-03-27T00:31:32.581Z,6.57
2018-03-27T00:32:32.532Z,6.57
2018-03-27T00:33:32.412Z,6.55
2018-03-27T00:34:32.482Z,6.55
2018-03-27T00:35:32.259Z,6.54
2018-03-27T00:36:32.246Z,6.60
2018-03-27T00:37:32.092Z,6.55
2018-03-27T00:38:32.062Z,6.55
2018-03-27T00:39:31.944Z,6.54
2018-03-27T00:40:31.972Z,6.65
2018-03-27T00:41:31.779Z,6.54
2018-03-27T00:42:31.775Z,6.54
2018-03-27T00:43:31.601Z,6.65
2018-03-27T00:44:31.617Z,6.53
2018-03-27T00:45:31.488Z,6.53
2018-03-27T00:46:31.497Z,6.57
2018-03-27T00:47:31.284Z,6.61
2018-03-27T00:48:31.304Z,6.55
2018-03-27T00:49:31.120Z,6.57
2018-03-27T00:50:31.156Z,6.57
2018-03-27T00:51:30.952Z,6.55
2018-03-27T00:52:30.931Z,6.54
2018-03-27T00:53:30.794Z,6.39
2018-03-27T00:54:30.834Z,6.43
2018-03-27T00:55:30.665Z,6.38
2018-03-27T00:56:30.642Z,6.39
2018-03-27T00:57:30.494Z,6.30
2018-03-27T00:58:30.556Z,6.28
2018-03-27T00:59:30.309Z,6.36
2018-03-27T01:00:30.293Z,6.40
2018-03-27T01:01:30.159Z,6.45
2018-03-27T01:02:30.166Z,6.38
2018-03-27T01:03:29.983Z,6.38
2018-03-27T01:04:29.983Z,6.42
2018-03-27T01:05:29.847Z,6.33
2018-03-27T01:06:29.790Z,6.30
2018-03-27T01:07:29.663Z,6.38
2018-03-27T01:08:29.694Z,6.19
2018-03-27T01:09:29.498Z,6.19
2018-03-27T01:10:29.536Z,6.27
2018-03-27T01:11:29.352Z,6.28
2018-03-27T01:12:29.313Z,6.19
2018-03-27T01:13:29.178Z,6.14
2018-03-27T01:14:29.116Z,6.14
2018-03-27T01:15:29.008Z,6.16
2018-03-27T01:16:29.057Z,6.06
2018-03-27T01:17:28.841Z,6.06
2018-03-27T01:18:28.851Z,6.02
2018-03-27T01:19:28.687Z,6.16
2018-03-27T01:20:28.689Z,6.14
2018-03-27T01:21:28.682Z,6.02
2018-03-27T01:22:28.557Z,6.01
2018-03-27T01:23:28.354Z,6.03
2018-03-27T01:24:28.382Z,5.88
2018-03-27T01:25:28.190Z,5.87
2018-03-27T01:26:28.204Z,5.83
2018-03-27T01:27:28.029Z,5.85
2018-03-27T01:28:27.982Z,5.80
2018-03-27T01:29:27.861Z,5.92
2018-03-27T01:30:27.894Z,5.92
2018-03-27T01:31:27.724Z,5.87
2018-03-27T01:32:27.702Z,5.75
2018-03-27T01:33:27.539Z,5.84
2018-03-27T01:34:27.510Z,5.80
2018-03-27T01:35:27.376Z,5.81
2018-03-27T01:36:27.350Z,5.84
2018-03-27T01:37:27.243Z,5.70
2018-03-27T01:38:27.537Z,5.75
2018-03-27T01:39:27.057Z,5.73
2018-03-27T01:42:09.182Z,5.75
2018-03-27T01:43:09.145Z,5.67
2018-03-27T01:44:09.007Z,5.80
2018-03-27T01:45:09.051Z,5.83
2018-03-27T01:46:08.843Z,5.78
2018-03-27T01:47:08.895Z,5.78
2018-03-27T01:48:08.731Z,5.63
2018-03-27T01:49:08.688Z,5.65
2018-03-27T01:50:08.525Z,5.69
2018-03-27T01:51:08.555Z,5.60
2018-03-27T01:52:08.377Z,5.66
2018-03-27T01:53:08.391Z,5.60
2018-03-27T01:54:08.194Z,5.65
2018-03-27T01:55:08.207Z,5.60
2018-03-27T01:56:08.024Z,5.70
2018-03-27T01:57:08.056Z,5.67
2018-03-27T01:58:07.888Z,5.73
2018-03-27T01:59:07.956Z,5.59
2018-03-27T02:00:07.701Z,5.65
2018-03-27T02:01:07.720Z,5.52
2018-03-27T02:02:07.548Z,5.62
2018-03-27T02:03:07.532Z,5.48
2018-03-27T02:04:07.377Z,5.55
2018-03-27T02:05:07.348Z,5.56
2018-03-27T02:06:07.212Z,5.49
2018-03-27T02:07:07.302Z,5.58
2018-03-27T02:08:07.068Z,5.58
2018-03-27T02:09:07.058Z,5.51
2018-03-27T02:10:06.886Z,5.45
2018-03-27T02:11:06.867Z,5.45
2018-03-27T02:12:06.718Z,5.41
2018-03-27T02:13:06.710Z,5.48
2018-03-27T02:14:06.566Z,5.56
2018-03-27T02:15:06.579Z,5.59
2018-03-27T02:16:06.392Z,5.67
2018-03-27T02:17:06.393Z,5.73
2018-03-27T02:18:06.287Z,5.63
2018-03-27T02:19:06.204Z,5.69
2018-03-27T02:20:06.074Z,5.56
2018-03-27T02:21:06.110Z,5.51
2018-03-27T02:22:05.904Z,5.51
2018-03-27T02:23:05.957Z,5.49
2018-03-27T02:24:05.753Z,5.52
2018-03-27T02:25:05.728Z,5.56
2018-03-27T02:26:05.585Z,5.52
2018-03-27T02:27:05.557Z,5.65
2018-03-27T02:28:05.416Z,5.63
2018-03-27T02:29:05.483Z,5.59
2018-03-27T02:30:05.254Z,5.66
2018-03-27T02:31:05.259Z,5.62
2018-03-27T02:32:05.088Z,5.63
2018-03-27T02:33:05.103Z,5.63
2018-03-27T02:34:04.939Z,5.70
2018-03-27T02:35:04.985Z,5.65
2018-03-27T02:36:04.764Z,5.59
2018-03-27T02:37:04.787Z,5.47
2018-03-27T02:38:04.623Z,5.41
2018-03-27T02:39:04.647Z,5.22
2018-03-27T02:40:04.433Z,5.04
2018-03-27T02:41:04.403Z,4.97
2018-03-27T02:42:04.283Z,5.05
2018-03-27T02:43:04.311Z,5.05
2018-03-27T02:44:04.121Z,4.93
2018-03-27T02:45:04.121Z,5.02
2018-03-27T02:46:03.940Z,5.04
2018-03-27T02:47:03.928Z,5.02
2018-03-27T02:48:03.792Z,5.12
2018-03-27T02:49:03.771Z,5.06
2018-03-27T02:50:03.617Z,5.04
2018-03-27T02:51:03.650Z,4.96
2018-03-27T02:52:03.447Z,4.91
2018-03-27T02:53:03.465Z,5.02
2018-03-27T02:54:03.307Z,4.99
2018-03-27T02:55:03.271Z,5.02
2018-03-27T02:56:03.134Z,4.93
2018-03-27T02:57:03.080Z,4.84
2018-03-27T02:58:02.956Z,4.84
2018-03-27T02:59:03.030Z,4.93
2018-03-27T03:00:02.795Z,4.84
2018-03-27T03:01:02.796Z,4.93
2018-03-27T03:02:02.627Z,4.86
2018-03-27T03:03:02.599Z,4.64
2018-03-27T03:04:02.487Z,4.57
2018-03-27T03:05:02.413Z,4.57
2018-03-27T03:06:02.315Z,4.64
2018-03-27T03:07:02.319Z,4.64
2018-03-27T03:08:02.140Z,4.62
2018-03-27T03:09:02.130Z,4.46
2018-03-27T03:10:02.005Z,4.44
2018-03-27T03:11:01.977Z,4.38
2018-03-27T03:12:01.817Z,4.42
2018-03-27T03:13:01.844Z,4.36
2018-03-27T03:14:01.658Z,4.43
2018-03-27T03:15:01.695Z,4.43
2018-03-27T03:16:01.496Z,4.46
2018-03-27T03:17:01.468Z,4.35
2018-03-27T03:18:01.312Z,4.36
2018-03-27T03:19:01.278Z,4.32
2018-03-27T03:20:01.167Z,4.42
2018-03-27T03:21:01.122Z,4.28
2018-03-27T03:22:00.983Z,4.28
2018-03-27T03:23:00.994Z,4.29
2018-03-27T03:24:00.815Z,4.25
2018-03-27T03:25:00.806Z,4.18
2018-03-27T03:26:00.671Z,4.24
2018-03-27T03:27:00.609Z,4.29
2018-03-27T03:28:00.491Z,4.31
2018-03-27T03:29:00.523Z,4.31
2018-03-27T03:30:00.419Z,4.25
2018-03-27T03:31:00.360Z,4.20
2018-03-27T03:32:00.175Z,4.06
2018-03-27T03:33:00.149Z,4.02
2018-03-27T03:34:00.001Z,4.13
2018-03-27T03:34:59.951Z,4.17
2018-03-27T03:35:59.846Z,4.17
2018-03-27T03:36:59.886Z,4.18
2018-03-27T03:37:59.662Z,4.31
2018-03-27T03:38:59.664Z,4.28
2018-03-27T03:39:59.497Z,4.16
2018-03-27T03:40:59.488Z,4.26
2018-03-27T03:41:59.352Z,4.20
2018-03-27T03:42:59.385Z,4.24
2018-03-27T03:43:59.169Z,4.13
2018-03-27T03:44:59.187Z,4.28
2018-03-27T03:45:59.028Z,4.28
2018-03-27T03:46:59.027Z,4.16
2018-03-27T03:47:58.843Z,3.90
2018-03-27T03:48:58.806Z,3.78
2018-03-27T03:49:58.778Z,3.78
2018-03-27T03:50:58.723Z,3.72
2018-03-27T03:51:58.545Z,3.77
2018-03-27T03:52:58.643Z,3.82
2018-03-27T03:53:58.344Z,3.80
2018-03-27T03:54:58.343Z,3.80
2018-03-27T03:55:58.176Z,3.88
2018-03-27T03:56:58.143Z,3.90
2018-03-27T03:57:58.037Z,3.92
2018-03-27T03:58:58.054Z,3.98
2018-03-27T03:59:57.856Z,3.92
2018-03-27T04:00:57.864Z,3.88
2018-03-27T04:01:57.695Z,3.86
2018-03-27T04:02:57.711Z,3.92
2018-03-27T04:03:57.517Z,3.95
2018-03-27T04:04:57.483Z,3.95
2018-03-27T04:05:57.345Z,3.84
2018-03-27T04:06:57.390Z,3.84
2018-03-27T04:07:57.201Z,3.78
2018-03-27T04:08:57.202Z,3.74
2018-03-27T04:09:57.128Z,3.78
2018-03-27T04:10:57.002Z,3.82
2018-03-27T04:11:56.850Z,3.77
2018-03-27T04:12:56.854Z,3.86
2018-03-27T04:13:56.694Z,3.82
2018-03-27T04:14:56.723Z,3.81
2018-03-27T04:15:56.528Z,3.75
2018-03-27T04:16:56.534Z,3.75
2018-03-27T04:17:56.357Z,3.74
2018-03-27T04:18:56.374Z,3.64
2018-03-27T04:19:56.300Z,3.70
2018-03-27T04:20:56.152Z,3.81
2018-03-27T04:21:56.043Z,3.78
2018-03-27T04:22:56.112Z,3.78
2018-03-27T04:23:55.865Z,3.75
2018-03-27T04:24:55.874Z,3.80
2018-03-27T04:25:55.700Z,3.75
2018-03-27T04:26:55.676Z,3.80
2018-03-27T04:27:55.557Z,3.75
2018-03-27T04:28:55.483Z,3.75
2018-03-27T04:29:55.365Z,3.80
2018-03-27T04:30:55.393Z,3.81
2018-03-27T04:31:55.195Z,3.71
2018-03-27T04:32:55.234Z,3.81
2018-03-27T04:33:55.037Z,3.72
2018-03-27T04:34:55.027Z,3.75
2018-03-27T04:35:54.865Z,3.80
2018-03-27T04:36:54.819Z,3.78
2018-03-27T04:37:54.728Z,3.75
2018-03-27T04:38:54.736Z,3.71
2018-03-27T04:39:54.590Z,3.63
2018-03-27T04:40:54.547Z,3.72
2018-03-27T04:41:54.371Z,3.71
2018-03-27T04:42:54.443Z,3.72
2018-03-27T04:43:54.215Z,3.72
2018-03-27T04:44:54.161Z,3.72
2018-03-27T04:45:54.033Z,3.74
2018-03-27T04:46:56.348Z,3.74
2018-03-27T04:48:18.271Z,3.77
2018-03-27T04:49:15.851Z,3.64
2018-03-27T04:49:53.787Z,3.74
2018-03-27T04:50:53.620Z,3.56
2018-03-27T04:51:53.591Z,3.53
2018-03-27T04:52:53.454Z,3.56
2018-03-27T04:53:53.429Z,3.59
2018-03-27T04:54:53.288Z,3.52
2018-03-27T04:55:53.332Z,3.63
2018-03-27T04:56:53.127Z,3.57
2018-03-27T04:57:53.123Z,3.56
2018-03-27T04:58:53.016Z,3.44
2018-03-27T04:59:53.005Z,3.42
2018-03-27T05:00:52.798Z,3.42
2018-03-27T05:01:52.839Z,3.30
2018-03-27T05:02:52.725Z,3.16
2018-03-27T05:03:52.723Z,3.13
2018-03-27T05:04:52.589Z,3.12
2018-03-27T05:05:52.514Z,3.10
2018-03-27T05:06:52.304Z,3.20
2018-03-27T05:07:52.343Z,3.13
2018-03-27T05:08:52.128Z,3.07
2018-03-27T05:09:52.109Z,3.08
2018-03-27T05:10:51.953Z,3.12
2018-03-27T05:11:51.992Z,3.08
2018-03-27T05:12:51.845Z,3.17
2018-03-27T05:13:51.792Z,3.26
2018-03-27T05:14:51.640Z,3.30
2018-03-27T05:15:51.609Z,3.23
2018-03-27T05:16:51.464Z,3.22
2018-03-27T05:17:51.509Z,3.23
2018-03-27T05:18:51.301Z,3.23
2018-03-27T05:19:51.330Z,3.28
2018-03-27T05:20:51.150Z,3.26
2018-03-27T05:21:51.133Z,3.22
2018-03-27T05:22:50.961Z,3.22
2018-03-27T05:23:50.937Z,3.30
2018-03-27T05:24:50.797Z,3.31
2018-03-27T05:25:50.774Z,3.42
2018-03-27T05:26:50.646Z,3.37
2018-03-27T05:27:50.858Z,3.44
2018-03-27T05:28:50.525Z,3.49
2018-03-27T05:29:50.999Z,3.49
2018-03-27T05:30:50.339Z,3.39
2018-03-27T05:33:32.221Z,3.26
2018-03-27T05:34:32.170Z,3.34
2018-03-27T05:35:32.029Z,3.30
2018-03-27T05:36:32.100Z,3.35
2018-03-27T05:37:31.866Z,3.45
2018-03-27T05:38:31.889Z,3.46
2018-03-27T05:39:31.705Z,3.37
2018-03-27T05:40:31.713Z,3.35
2018-03-27T05:41:31.555Z,3.26
2018-03-27T05:42:31.510Z,3.30
2018-03-27T05:43:31.366Z,3.41
2018-03-27T05:44:31.320Z,3.26
2018-03-27T05:45:31.202Z,3.25
2018-03-27T05:46:31.251Z,3.20
2018-03-27T05:47:31.033Z,3.23
2018-03-27T05:48:31.034Z,3.41
2018-03-27T05:49:30.875Z,3.31
2018-03-27T05:50:30.845Z,3.26
2018-03-27T05:51:30.717Z,3.33
2018-03-27T05:52:30.652Z,3.35
2018-03-27T05:53:30.570Z,3.41
2018-03-27T05:54:30.561Z,3.52
2018-03-27T05:55:30.367Z,3.56
2018-03-27T05:57:55.282Z,3.52
2018-03-27T05:58:55.120Z,3.53
2018-03-27T05:59:55.064Z,3.59
2018-03-27T06:00:54.947Z,3.56
2018-03-27T06:01:55.016Z,3.64
2018-03-27T06:02:54.790Z,3.71
2018-03-27T06:03:54.783Z,3.75
2018-03-27T06:04:55.290Z,3.74
2018-03-27T06:05:54.812Z,3.71
2018-03-27T06:06:54.494Z,3.68
2018-03-27T06:07:55.062Z,3.75
2018-03-27T06:08:54.302Z,3.89
2018-03-27T06:09:54.316Z,3.92
2018-03-27T06:10:54.114Z,3.74
2018-03-27T06:11:54.121Z,3.78
2018-03-27T06:12:53.976Z,3.80
2018-03-27T06:13:53.950Z,3.81
2018-03-27T06:14:53.780Z,3.78
2018-03-27T06:15:53.735Z,3.98
2018-03-27T06:16:53.638Z,4.04
2018-03-27T06:17:53.688Z,4.00
2018-03-27T06:18:53.450Z,3.90
2018-03-27T06:19:53.455Z,3.95
2018-03-27T06:20:53.302Z,3.95
2018-03-27T06:21:53.268Z,4.06
2018-03-27T06:22:53.135Z,4.04
2018-03-27T06:23:53.112Z,3.99
2018-03-27T06:24:52.971Z,4.14
2018-03-27T06:25:52.983Z,4.06
2018-03-27T06:26:52.796Z,4.20
2018-03-27T06:27:52.855Z,4.13
2018-03-27T06:28:52.619Z,4.20
2018-03-27T06:29:52.607Z,4.14
2018-03-27T06:30:52.459Z,4.11
2018-03-27T06:31:52.409Z,4.17
2018-03-27T06:32:52.307Z,4.18
2018-03-27T06:33:52.338Z,4.21
2018-03-27T06:34:52.122Z,4.28
2018-03-27T06:35:52.127Z,4.32
2018-03-27T06:36:51.959Z,4.26
2018-03-27T06:37:51.951Z,4.24
2018-03-27T06:38:51.836Z,4.20
2018-03-27T06:39:51.744Z,4.35
2018-03-27T06:40:51.641Z,4.42
2018-03-27T06:41:51.654Z,4.46
2018-03-27T06:42:51.456Z,4.34
2018-03-27T06:43:51.474Z,4.56
2018-03-27T06:44:51.311Z,4.51
2018-03-27T06:45:51.271Z,4.50
2018-03-27T06:46:51.123Z,4.62
2018-03-27T06:47:51.094Z,4.74
2018-03-27T06:48:50.982Z,4.68
2018-03-27T06:49:50.987Z,4.71
2018-03-27T06:50:50.793Z,4.83
2018-03-27T06:51:50.795Z,4.61
2018-03-27T06:52:50.658Z,4.68
2018-03-27T06:53:50.643Z,4.93
2018-03-27T06:54:50.585Z,5.30
2018-03-27T06:55:50.415Z,5.81
2018-03-27T06:56:50.307Z,6.06
2018-03-27T06:57:50.364Z,6.20
2018-03-27T06:58:50.133Z,6.54
2018-03-27T06:59:50.182Z,6.55
2018-03-27T07:00:49.967Z,6.48
2018-03-27T07:01:49.961Z,6.76
2018-03-27T07:02:49.863Z,7.21
2018-03-27T07:03:49.882Z,7.67
2018-03-27T07:04:49.668Z,7.89
2018-03-27T07:05:49.694Z,7.88
2018-03-27T07:06:49.498Z,7.92
2018-03-27T07:07:49.501Z,7.94
2018-03-27T07:08:49.358Z,7.74
2018-03-27T07:09:49.355Z,7.33
2018-03-27T07:10:49.165Z,7.55
2018-03-27T07:11:49.211Z,7.84
2018-03-27T07:12:48.994Z,7.84
2018-03-27T07:13:49.014Z,7.95
2018-03-27T07:14:48.893Z,7.48
2018-03-27T07:15:48.870Z,7.99
2018-03-27T07:16:48.681Z,7.66
2018-03-27T07:17:48.723Z,7.94
2018-03-27T07:18:48.548Z,8.20
2018-03-27T07:19:48.574Z,8.07
2018-03-27T07:20:48.376Z,7.88
2018-03-27T07:21:48.352Z,8.22
2018-03-27T07:22:48.210Z,8.61
2018-03-27T07:23:48.143Z,9.26
2018-03-27T07:24:48.043Z,9.32
2018-03-27T07:25:48.116Z,8.82
2018-03-27T07:26:47.866Z,8.78
2018-03-27T07:27:47.875Z,8.63
2018-03-27T07:28:47.720Z,8.94
2018-03-27T07:29:47.690Z,8.96
2018-03-27T07:30:47.564Z,8.34
2018-03-27T07:31:47.595Z,8.32
2018-03-27T07:32:47.383Z,8.65
2018-03-27T07:33:47.392Z,8.96
2018-03-27T07:34:47.229Z,8.29
2018-03-27T07:35:47.229Z,8.47
2018-03-27T07:36:47.067Z,8.98
2018-03-27T07:37:47.012Z,9.49
2018-03-27T07:38:46.900Z,9.26
2018-03-27T07:39:46.929Z,9.52
2018-03-27T07:40:46.789Z,9.68
2018-03-27T07:41:46.735Z,9.35
2018-03-27T07:42:46.608Z,9.08
2018-03-27T07:43:46.530Z,9.31
2018-03-27T07:44:46.437Z,9.08
2018-03-27T07:45:46.459Z,9.59
2018-03-27T07:46:46.273Z,9.71
2018-03-27T07:47:46.294Z,9.56
2018-03-27T07:48:46.106Z,9.75
2018-03-27T07:49:46.063Z,10.13
2018-03-27T07:50:45.947Z,9.78
2018-03-27T07:51:46.009Z,10.43
2018-03-27T07:52:45.798Z,11.35
2018-03-27T07:53:45.788Z,11.11
2018-03-27T07:54:45.625Z,10.72
2018-03-27T07:55:45.590Z,11.21
2018-03-27T07:56:45.485Z,10.60
2018-03-27T07:57:45.508Z,11.08
2018-03-27T07:58:45.313Z,11.09
2018-03-27T07:59:45.312Z,11.36
2018-03-27T08:00:45.175Z,11.54
2018-03-27T08:01:45.149Z,11.26
2018-03-27T08:02:45.014Z,11.54
2018-03-27T08:03:45.038Z,11.82
2018-03-27T08:04:44.830Z,12.04
2018-03-27T08:05:44.844Z,12.49
2018-03-27T08:06:44.680Z,11.30
2018-03-27T08:07:44.677Z,11.57
2018-03-27T08:08:44.527Z,11.70
2018-03-27T08:09:44.575Z,11.44
2018-03-27T08:10:44.374Z,11.66
2018-03-27T08:11:44.382Z,12.34
2018-03-27T08:12:44.229Z,11.53
2018-03-27T08:13:44.176Z,11.02
2018-03-27T08:14:44.046Z,9.70
2018-03-27T08:15:44.093Z,9.59
2018-03-27T08:16:43.896Z,9.71
2018-03-27T08:17:43.928Z,9.92
2018-03-27T08:18:43.735Z,9.52
2018-03-27T08:19:43.697Z,8.73
2018-03-27T08:20:43.707Z,8.70
2018-03-27T08:21:43.606Z,8.42
2018-03-27T08:22:43.446Z,8.57
2018-03-27T08:23:43.506Z,8.80
2018-03-27T08:24:43.269Z,8.80
2018-03-27T08:25:43.230Z,8.68
2018-03-27T08:26:43.097Z,8.58
2018-03-27T08:27:43.185Z,8.54
2018-03-27T08:28:42.993Z,8.57
2018-03-27T08:29:43.036Z,8.82
2018-03-27T08:30:42.799Z,8.78
2018-03-27T08:31:42.760Z,8.89
2018-03-27T08:32:42.619Z,8.96
2018-03-27T08:33:42.712Z,9.35
2018-03-27T08:34:42.467Z,9.12
2018-03-27T08:35:42.488Z,9.08
2018-03-27T08:36:42.303Z,9.31
2018-03-27T08:37:42.278Z,9.32
2018-03-27T08:38:42.204Z,9.24
2018-03-27T08:39:42.197Z,9.56
2018-03-27T08:40:42.054Z,9.80
2018-03-27T08:41:42.001Z,10.94
2018-03-27T08:42:41.828Z,11.67
2018-03-27T08:43:41.856Z,11.21
2018-03-27T08:44:41.679Z,11.13
2018-03-27T08:45:41.651Z,11.21
2018-03-27T08:46:41.520Z,10.83
2018-03-27T08:47:41.524Z,11.08
2018-03-27T08:48:41.374Z,10.22
2018-03-27T08:49:41.343Z,10.49
2018-03-27T08:50:41.229Z,10.65
2018-03-27T08:51:41.156Z,10.43
2018-03-27T08:52:41.053Z,10.42
2018-03-27T08:53:41.083Z,11.11
2018-03-27T08:54:40.880Z,11.17
2018-03-27T08:55:40.875Z,10.38
2018-03-27T08:56:40.762Z,10.81
2018-03-27T08:57:40.675Z,10.86
2018-03-27T08:58:40.563Z,10.72
2018-03-27T08:59:40.697Z,11.08
2018-03-27T09:00:40.432Z,11.13
2018-03-27T09:01:40.442Z,10.91
2018-03-27T09:02:40.236Z,11.11
2018-03-27T09:03:40.232Z,10.98
2018-03-27T09:04:40.114Z,11.21
2018-03-27T09:05:40.113Z,12.63
2018-03-27T09:06:39.958Z,13.03
2018-03-27T09:09:21.734Z,14.69
2018-03-27T09:10:21.714Z,14.79
2018-03-27T09:11:21.590Z,15.30
2018-03-27T09:12:21.658Z,13.53
2018-03-27T09:13:21.440Z,12.88
2018-03-27T09:14:21.428Z,12.85
2018-03-27T09:15:21.286Z,12.22
2018-03-27T09:16:21.238Z,12.16
2018-03-27T09:17:21.122Z,12.30
2018-03-27T09:18:21.152Z,12.25
2018-03-27T09:19:20.955Z,11.98
2018-03-27T09:20:21.051Z,11.35
2018-03-27T09:21:20.803Z,10.90
2018-03-27T09:22:20.760Z,10.81
2018-03-27T09:23:20.659Z,10.51
2018-03-27T09:24:20.674Z,10.46
2018-03-27T09:25:20.510Z,10.14
2018-03-27T09:26:20.490Z,10.16
2018-03-27T09:27:20.344Z,10.36
2018-03-27T09:28:20.305Z,10.73
2018-03-27T09:29:20.173Z,10.49
2018-03-27T09:30:20.239Z,10.93
2018-03-27T09:31:20.021Z,11.23
2018-03-27T09:32:20.019Z,11.08
2018-03-27T09:33:19.926Z,10.75
2018-03-27T09:34:19.823Z,10.52
2018-03-27T09:35:19.726Z,10.46
2018-03-27T09:36:19.736Z,10.42
2018-03-27T09:37:19.550Z,10.26
2018-03-27T09:38:19.584Z,10.31
2018-03-27T09:39:19.384Z,10.25
2018-03-27T09:40:19.412Z,10.22
2018-03-27T09:41:19.289Z,10.29
2018-03-27T09:42:19.272Z,10.43
2018-03-27T09:43:19.073Z,10.26
2018-03-27T09:44:19.210Z,10.36
2018-03-27T09:45:18.936Z,10.26
2018-03-27T09:46:20.050Z,10.24
2018-03-27T09:47:18.808Z,10.28
2018-03-27T09:48:19.776Z,10.28
2018-03-27T09:49:18.600Z,10.31
2018-03-27T09:50:18.598Z,10.04
2018-03-27T09:51:18.459Z,10.06
2018-03-27T09:52:18.460Z,10.13
2018-03-27T09:53:18.365Z,10.17
2018-03-27T09:54:18.345Z,10.14
2018-03-27T09:55:18.154Z,10.16
2018-03-27T09:56:18.170Z,10.17
2018-03-27T09:57:17.998Z,10.13
2018-03-27T09:58:17.972Z,10.02
2018-03-27T09:59:17.928Z,10.10
2018-03-27T10:00:17.855Z,10.04
2018-03-27T10:01:17.652Z,10.11
2018-03-27T10:02:17.695Z,10.07
2018-03-27T10:03:17.492Z,9.96
2018-03-27T10:04:17.473Z,9.96
2018-03-27T10:05:17.326Z,9.89
2018-03-27T10:06:17.377Z,9.99
2018-03-27T10:07:17.184Z,10.02
2018-03-27T10:08:17.187Z,10.01
2018-03-27T10:09:17.024Z,9.89
2018-03-27T10:10:16.995Z,9.91
2018-03-27T10:11:16.841Z,9.99
2018-03-27T10:12:16.830Z,10.11
2018-03-27T10:13:16.686Z,10.11
2018-03-27T10:14:16.732Z,10.17
2018-03-27T10:15:16.521Z,10.17
2018-03-27T10:16:16.572Z,10.13
2018-03-27T10:17:16.394Z,10.22
2018-03-27T10:18:16.367Z,10.25
2018-03-27T10:19:16.233Z,10.26
2018-03-27T10:20:16.245Z,10.26
2018-03-27T10:21:16.047Z,10.24
2018-03-27T10:22:16.052Z,10.34
2018-03-27T10:23:15.897Z,10.43
2018-03-27T10:24:15.869Z,10.36
2018-03-27T10:25:15.723Z,10.42
2018-03-27T10:26:15.768Z,10.39
2018-03-27T10:27:15.589Z,10.52
2018-03-27T10:28:15.612Z,10.29
2018-03-27T10:29:15.524Z,10.57
2018-03-27T10:30:15.388Z,10.60
2018-03-27T10:31:15.240Z,10.91
2018-03-27T10:32:15.337Z,10.91
2018-03-27T10:33:15.080Z,11.19
2018-03-27T10:34:15.125Z,11.16
2018-03-27T10:35:14.925Z,11.35
2018-03-27T10:36:14.901Z,11.59
2018-03-27T10:37:14.771Z,11.35
2018-03-27T10:38:14.816Z,11.67
2018-03-27T10:39:14.632Z,11.93
2018-03-27T10:40:14.629Z,12.44
2018-03-27T10:41:14.459Z,12.61
2018-03-27T10:42:14.439Z,13.12
2018-03-27T10:43:14.289Z,13.51
2018-03-27T10:44:14.289Z,14.09
2018-03-27T10:45:14.135Z,13.71
2018-03-27T10:46:14.152Z,13.10
2018-03-27T10:47:13.980Z,12.99
2018-03-27T10:48:13.979Z,12.84
2018-03-27T10:49:13.953Z,13.04
2018-03-27T10:50:13.791Z,13.47
2018-03-27T10:51:13.657Z,13.41
2018-03-27T10:52:13.700Z,12.59
2018-03-27T10:53:13.506Z,12.37
2018-03-27T10:54:13.538Z,12.59
2018-03-27T10:55:13.355Z,12.95
2018-03-27T10:56:13.397Z,13.94
2018-03-27T10:57:13.214Z,13.41
2018-03-27T10:59:55.287Z,12.23
2018-03-27T11:00:55.315Z,12.63
2018-03-27T11:01:55.117Z,12.18
2018-03-27T11:02:55.156Z,12.29
2018-03-27T11:03:54.983Z,12.15
2018-03-27T11:04:54.972Z,12.16
2018-03-27T11:05:54.792Z,12.55
2018-03-27T11:06:54.831Z,12.89
2018-03-27T11:07:54.642Z,13.35
2018-03-27T11:08:54.655Z,12.69
2018-03-27T11:09:54.523Z,12.49
2018-03-27T11:10:54.457Z,12.15
2018-03-27T11:11:54.336Z,11.53
2018-03-27T11:12:54.376Z,11.72
2018-03-27T11:13:54.191Z,11.69
2018-03-27T11:14:54.201Z,11.66
2018-03-27T11:15:54.035Z,11.84
2018-03-27T11:16:54.018Z,12.08
2018-03-27T11:17:53.862Z,11.90
2018-03-27T11:18:53.897Z,11.53
2018-03-27T11:19:53.732Z,11.24
2018-03-27T11:20:53.728Z,11.19
2018-03-27T11:21:53.670Z,11.33
2018-03-27T11:22:53.499Z,11.48
2018-03-27T11:23:53.395Z,11.28
2018-03-27T11:24:53.424Z,11.30
2018-03-27T11:25:53.241Z,11.38
2018-03-27T11:26:53.254Z,11.48
2018-03-27T11:27:53.077Z,11.54
2018-03-27T11:28:53.045Z,11.63
2018-03-27T11:29:52.921Z,11.64
2018-03-27T11:30:52.978Z,11.66
2018-03-27T11:31:52.800Z,11.53
2018-03-27T11:32:52.767Z,11.33
2018-03-27T11:33:52.597Z,11.13
2018-03-27T11:34:52.593Z,11.36
2018-03-27T11:35:52.461Z,11.30
2018-03-27T11:36:52.517Z,11.31
2018-03-27T11:37:52.303Z,11.56
2018-03-27T11:38:52.278Z,11.64
2018-03-27T11:39:52.144Z,12.07
2018-03-27T11:40:52.091Z,11.82
2018-03-27T11:41:51.988Z,11.98
2018-03-27T11:42:52.039Z,12.13
2018-03-27T11:43:51.827Z,12.30
2018-03-27T11:44:51.811Z,13.57
2018-03-27T11:45:51.652Z,14.19
2018-03-27T11:46:51.625Z,13.72
2018-03-27T11:47:51.518Z,14.17
2018-03-27T11:48:51.537Z,14.38
2018-03-27T11:49:51.337Z,15.18
2018-03-27T11:50:51.338Z,14.64
2018-03-27T11:51:51.252Z,14.74
2018-03-27T11:52:51.142Z,15.31
2018-03-27T11:53:51.022Z,14.59
2018-03-27T11:54:51.067Z,14.38
2018-03-27T11:55:50.974Z,14.39
2018-03-27T11:56:50.860Z,15.05
2018-03-27T11:57:50.809Z,14.78
2018-03-27T11:58:50.668Z,14.91
2018-03-27T11:59:50.560Z,14.60
2018-03-27T12:00:50.613Z,14.24
2018-03-27T12:01:50.422Z,13.99
2018-03-27T12:02:50.417Z,13.06
2018-03-27T12:03:50.248Z,12.52
2018-03-27T12:04:50.315Z,12.49
2018-03-27T12:05:50.095Z,12.26
2018-03-27T12:06:50.143Z,12.25
2018-03-27T12:07:49.958Z,12.31
2018-03-27T12:08:49.934Z,12.26
2018-03-27T12:09:49.789Z,12.13
2018-03-27T12:10:49.835Z,12.03
2018-03-27T12:11:49.626Z,11.98
2018-03-27T12:12:49.668Z,11.85
2018-03-27T12:13:49.591Z,11.87
2018-03-27T12:14:49.451Z,11.96
2018-03-27T12:15:49.333Z,12.03
2018-03-27T12:16:49.410Z,12.08
2018-03-27T12:17:49.174Z,12.08
2018-03-27T12:18:49.160Z,11.82
2018-03-27T12:19:49.004Z,11.66
2018-03-27T12:20:48.967Z,11.70
2018-03-27T12:21:48.870Z,11.87
2018-03-27T12:22:48.947Z,11.90
2018-03-27T12:23:48.718Z,11.87
2018-03-27T12:24:48.700Z,11.96
2018-03-27T12:25:48.522Z,11.94
2018-03-27T12:26:48.501Z,11.97
2018-03-27T12:27:48.391Z,11.97
2018-03-27T12:28:48.449Z,11.85
2018-03-27T12:29:48.221Z,11.79
2018-03-27T12:32:30.304Z,12.05
2018-03-27T12:33:30.321Z,12.08
2018-03-27T12:34:30.152Z,12.25
2018-03-27T12:35:30.132Z,12.01
2018-03-27T12:36:29.975Z,12.13
2018-03-27T12:37:29.945Z,12.18
2018-03-27T12:38:29.825Z,12.16
2018-03-27T12:39:29.889Z,12.19
2018-03-27T12:40:29.660Z,12.08
2018-03-27T12:41:29.703Z,12.43
2018-03-27T12:42:29.504Z,12.62
2018-03-27T12:43:30.363Z,12.56
2018-03-27T12:44:29.362Z,12.46
2018-03-27T12:45:29.380Z,12.61
2018-03-27T12:46:29.188Z,12.46
2018-03-27T12:47:29.190Z,12.52
2018-03-27T12:48:29.032Z,12.56
2018-03-27T12:49:29.065Z,12.37
2018-03-27T12:50:28.872Z,12.34
2018-03-27T12:51:28.903Z,12.25
2018-03-27T12:52:28.709Z,12.46
2018-03-27T12:53:28.723Z,12.54
2018-03-27T12:54:28.579Z,12.30
2018-03-27T12:55:28.516Z,12.33
2018-03-27T12:56:28.393Z,12.29
2018-03-27T12:57:28.478Z,12.13
2018-03-27T12:58:28.244Z,12.11
2018-03-27T12:59:28.236Z,11.98
2018-03-27T13:00:28.179Z,12.13
2018-03-27T13:01:28.058Z,12.07
2018-03-27T13:02:27.921Z,12.00
2018-03-27T13:03:27.960Z,12.15
2018-03-27T13:04:28.327Z,12.19
2018-03-27T13:05:27.763Z,12.11
2018-03-27T13:06:27.613Z,12.07
2018-03-27T13:07:27.615Z,12.21
2018-03-27T13:08:27.445Z,12.13
2018-03-27T13:09:27.437Z,12.30
2018-03-27T13:10:27.315Z,12.31
2018-03-27T13:11:27.330Z,12.25
2018-03-27T13:12:27.143Z,12.38
2018-03-27T13:13:27.141Z,12.51
2018-03-27T13:14:26.977Z,12.46
2018-03-27T13:15:27.014Z,12.40
2018-03-27T13:16:26.847Z,12.44
2018-03-27T13:17:26.819Z,12.51